Time;durP1;ratioP1;P1;durP2;ratioP2;P2;SDS_P1;SDS_P2;PMS_P1;PMS_P2;Temp;Humidity;BMP_temperature;BMP_pressure;BME280_temperature;BME280_humidity;BME280_pressure;Samples;Min_cycle;Max_cycle;Signal;HPM_P1;HPM_P2
2023/07/18 00:04:52;;;;;;;7.40;1.77;;;16.40;1.00;;;;;;20825028;28;20056;-42
2023/07/18 00:14:53;;;;;;;12.32;2.00;;;16.30;1.00;;;;;;20789215;28;20556;-43
2023/07/18 00:24:54;;;;;;;6.90;1.77;;;16.30;1.00;;;;;;20775405;28;20389;-42
2023/07/18 00:34:56;;;;;;;8.55;2.10;;;16.30;1.00;;;;;;20765624;28;20052;-42
2023/07/18 00:44:57;;;;;;;5.93;1.67;;;16.30;1.00;;;;;;20768873;28;20592;-42
2023/07/18 00:54:58;;;;;;;7.97;2.17;;;16.20;1.00;;;;;;20783574;28;20049;-42
2023/07/18 01:04:59;;;;;;;4.35;1.40;;;16.10;1.00;;;;;;20784227;28;20041;-41
2023/07/18 01:15:00;;;;;;;7.00;1.60;;;15.90;1.00;;;;;;20787019;28;20048;-42
2023/07/18 01:25:01;;;;;;;6.30;1.55;;;16.00;1.00;;;;;;20784958;28;20043;-42
2023/07/18 01:35:08;;;;;;;5.55;1.92;;;16.00;1.00;;;;;;20782224;28;21853;-42
2023/07/18 01:45:10;;;;;;;7.28;1.80;;;15.90;1.00;;;;;;20780468;28;20045;-42
2023/07/18 01:55:11;;;;;;;7.00;1.70;;;15.90;1.00;;;;;;20780496;28;20060;-41
2023/07/18 02:05:13;;;;;;;5.55;1.60;;;15.70;1.00;;;;;;20776327;28;20041;-42
2023/07/18 02:15:14;;;;;;;6.05;1.90;;;15.70;1.00;;;;;;20776389;28;20516;-42
2023/07/18 02:25:17;;;;;;;6.03;2.08;;;15.60;1.00;;;;;;20771532;28;20044;-42
2023/07/18 02:35:20;;;;;;;7.03;2.10;;;15.50;1.00;;;;;;20773466;28;20041;-42
2023/07/18 02:45:22;;;;;;;5.25;1.92;;;15.50;1.00;;;;;;20800467;28;21205;-42
2023/07/18 02:55:24;;;;;;;3.08;1.50;;;15.60;1.00;;;;;;20768467;28;20045;-42
2023/07/18 03:05:27;;;;;;;6.13;1.63;;;15.40;1.00;;;;;;20774859;28;20587;-42
2023/07/18 03:15:28;;;;;;;5.03;1.75;;;15.30;1.00;;;;;;20779793;28;20045;-42
2023/07/18 03:25:29;;;;;;;7.82;1.98;;;15.20;1.00;;;;;;20786293;28;20378;-42
2023/07/18 03:35:31;;;;;;;6.07;2.22;;;15.30;1.00;;;;;;20776716;28;20554;-42
2023/07/18 03:45:32;;;;;;;6.50;2.33;;;15.30;1.00;;;;;;20777666;28;20037;-42
2023/07/18 03:55:33;;;;;;;5.22;2.08;;;15.10;1.00;;;;;;20771524;28;20030;-42
2023/07/18 04:05:34;;;;;;;6.07;2.20;;;15.10;1.00;;;;;;20776094;28;20515;-42
2023/07/18 04:15:35;;;;;;;4.70;2.15;;;15.00;1.00;;;;;;20773988;28;20036;-42
2023/07/18 04:26:00;;;;;;;10.68;2.40;;;15.00;1.00;;;;;;20774023;28;20041;-42
2023/07/18 04:36:02;;;;;;;5.32;2.50;;;14.90;1.00;;;;;;20773447;28;20044;-42
2023/07/18 04:46:05;;;;;;;6.72;3.05;;;14.90;1.00;;;;;;20780589;28;20050;-41
2023/07/18 04:56:07;;;;;;;6.43;2.13;;;14.80;1.00;;;;;;20779878;28;20041;-41
2023/07/18 05:06:08;;;;;;;5.30;2.53;;;14.80;1.00;;;;;;20852886;28;20284;-41
2023/07/18 05:16:09;;;;;;;6.38;2.65;;;14.90;1.00;;;;;;20855030;28;20039;-41
2023/07/18 05:26:10;;;;;;;6.22;2.70;;;15.20;1.00;;;;;;20851957;28;20044;-41
2023/07/18 05:36:11;;;;;;;8.00;2.92;;;15.40;1.00;;;;;;20855871;28;20140;-41
2023/07/18 05:46:12;;;;;;;8.07;2.58;;;15.50;1.00;;;;;;20868463;28;20504;-41
2023/07/18 05:56:13;;;;;;;10.02;3.42;;;15.60;1.00;;;;;;20875503;28;20044;-41
2023/07/18 06:06:15;;;;;;;6.95;2.65;;;15.70;1.00;;;;;;20868509;28;20043;-42
2023/07/18 06:16:16;;;;;;;7.20;2.85;;;15.90;1.00;;;;;;20878751;28;20040;-42
2023/07/18 06:26:17;;;;;;;11.15;3.42;;;16.30;1.00;;;;;;20884013;28;20057;-41
2023/07/18 06:36:18;;;;;;;7.63;2.90;;;16.50;1.00;;;;;;20886986;28;20447;-41
2023/07/18 06:46:21;;;;;;;11.50;3.40;;;16.70;1.00;;;;;;20892297;28;20632;-43
2023/07/18 06:56:23;;;;;;;12.07;4.18;;;16.90;1.00;;;;;;20877338;28;20520;-41
2023/07/18 07:06:24;;;;;;;15.45;4.80;;;17.30;1.00;;;;;;20880252;28;20052;-42
2023/07/18 07:16:25;;;;;;;15.85;4.80;;;17.50;1.00;;;;;;20873099;28;20044;-42
2023/07/18 07:26:26;;;;;;;18.48;5.18;;;17.50;1.00;;;;;;20874832;28;20040;-42
2023/07/18 07:36:27;;;;;;;15.93;5.28;;;17.70;1.00;;;;;;20873897;28;20063;-42
2023/07/18 07:46:29;;;;;;;12.85;4.97;;;17.80;1.00;;;;;;20873494;28;20366;-42
2023/07/18 07:56:30;;;;;;;12.13;5.30;;;18.20;1.00;;;;;;20871774;28;20536;-42
2023/07/18 08:06:31;;;;;;;12.77;5.75;;;18.30;1.00;;;;;;20875635;28;20051;-42
2023/07/18 08:16:33;;;;;;;14.43;5.22;;;18.50;1.00;;;;;;20872842;28;20075;-42
2023/07/18 08:26:34;;;;;;;13.75;4.57;;;18.70;1.00;;;;;;20875231;28;20485;-42
2023/07/18 08:36:35;;;;;;;9.80;3.65;;;18.80;1.00;;;;;;20872916;28;20052;-42
2023/07/18 08:46:36;;;;;;;9.63;3.65;;;19.10;1.00;;;;;;20870485;28;20037;-43
2023/07/18 08:56:43;;;;;;;10.63;3.45;;;19.40;1.00;;;;;;20872818;28;20048;-42
2023/07/18 09:06:49;;;;;;;8.47;4.00;;;19.60;1.00;;;;;;20870081;28;20047;-42
2023/07/18 09:16:54;;;;;;;11.18;4.72;;;19.80;1.00;;;;;;20883230;28;20040;-42
2023/07/18 09:26:56;;;;;;;9.32;4.95;;;20.10;1.00;;;;;;20891881;28;20040;-42
2023/07/18 09:36:59;;;;;;;8.93;4.40;;;20.40;1.00;;;;;;20889091;28;20423;-42
2023/07/18 09:47:01;;;;;;;10.55;4.05;;;20.70;1.00;;;;;;20884374;28;20036;-42
2023/07/18 09:57:04;;;;;;;9.43;3.67;;;20.90;1.00;;;;;;20886656;28;20049;-42
2023/07/18 10:07:10;;;;;;;8.98;4.35;;;21.20;1.00;;;;;;20906419;28;20037;-42
2023/07/18 10:17:24;;;;;;;9.73;4.40;;;21.50;1.00;;;;;;20904241;28;20413;-42
2023/07/18 10:27:43;;;;;;;6.22;3.97;;;21.80;1.00;;;;;;20894672;28;20462;-42
2023/07/18 10:37:51;;;;;;;9.20;4.22;;;22.00;1.00;;;;;;20878265;28;20317;-42
2023/07/18 10:47:52;;;;;;;10.18;3.88;;;22.20;1.00;;;;;;20875473;28;20044;-42
2023/07/18 10:57:55;;;;;;;9.77;4.53;;;22.40;1.00;;;;;;20877881;28;20317;-43
2023/07/18 11:07:56;;;;;;;8.05;4.47;;;22.40;1.00;;;;;;20853470;28;20032;-42
2023/07/18 11:17:57;;;;;;;10.13;5.80;;;22.40;1.00;;;;;;20870187;28;20056;-42
2023/07/18 11:28:03;;;;;;;8.38;4.10;;;23.10;1.00;;;;;;20867407;28;20176;-43
2023/07/18 11:38:04;;;;;;;7.65;3.42;;;23.40;1.00;;;;;;20865691;28;20049;-43
2023/07/18 11:48:06;;;;;;;6.47;3.38;;;23.60;1.00;;;;;;20866243;28;20041;-42
2023/07/18 11:58:09;;;;;;;6.30;2.50;;;23.90;1.00;;;;;;20878986;28;20063;-42
2023/07/18 12:08:12;;;;;;;4.97;2.40;;;24.10;1.00;;;;;;20862702;28;21933;-42
2023/07/18 12:18:13;;;;;;;5.85;2.35;;;24.70;1.00;;;;;;20867291;28;20117;-42
2023/07/18 12:28:14;;;;;;;4.72;2.38;;;24.80;1.00;;;;;;20865375;28;20032;-43
2023/07/18 12:38:15;;;;;;;4.32;2.10;;;24.70;1.00;;;;;;20863902;28;20481;-42
2023/07/18 12:48:16;;;;;;;3.78;1.63;;;23.90;1.00;;;;;;20861055;28;20037;-42
2023/07/18 12:58:17;;;;;;;4.60;1.92;;;24.40;1.00;;;;;;20861716;28;20045;-44
2023/07/18 13:08:18;;;;;;;3.50;1.77;;;24.70;1.00;;;;;;20861068;28;20420;-42
2023/07/18 13:18:19;;;;;;;6.82;1.75;;;24.80;1.00;;;;;;20863808;28;20041;-43
2023/07/18 13:28:20;;;;;;;5.57;1.95;;;24.90;1.00;;;;;;20860828;28;20040;-42
2023/07/18 13:38:21;;;;;;;4.82;1.70;;;25.50;1.00;;;;;;20859796;28;20052;-43
2023/07/18 13:48:22;;;;;;;3.20;1.40;;;25.30;1.00;;;;;;20859961;28;20041;-42
2023/07/18 13:58:23;;;;;;;3.33;1.38;;;24.90;1.00;;;;;;20863614;28;20124;-43
2023/07/18 14:08:26;;;;;;;2.80;1.60;;;25.30;1.00;;;;;;20874098;28;20321;-43
2023/07/18 14:18:27;;;;;;;3.50;1.30;;;25.10;1.00;;;;;;20875664;28;20246;-42
2023/07/18 14:28:28;;;;;;;4.30;1.20;;;25.20;1.00;;;;;;20875629;28;20058;-43
2023/07/18 14:38:29;;;;;;;2.75;1.50;;;25.20;1.00;;;;;;20875151;28;20323;-43
2023/07/18 14:48:30;;;;;;;4.00;1.60;;;25.00;1.00;;;;;;20890612;28;20453;-42
2023/07/18 14:58:31;;;;;;;4.57;1.00;;;24.50;1.00;;;;;;20870548;28;20036;-42
2023/07/18 15:08:33;;;;;;;3.40;0.93;;;24.00;1.00;;;;;;20875749;28;20044;-42
2023/07/18 15:18:35;;;;;;;4.97;1.17;;;23.60;1.00;;;;;;20869926;28;20040;-43
2023/07/18 15:28:36;;;;;;;2.28;0.90;;;23.50;1.00;;;;;;20874347;28;20033;-42
2023/07/18 15:38:37;;;;;;;2.78;0.95;;;23.40;1.00;;;;;;20879775;28;20071;-43
2023/07/18 15:48:43;;;;;;;1.73;0.80;;;23.50;1.00;;;;;;20875750;28;20041;-43
2023/07/18 15:58:44;;;;;;;3.70;1.00;;;23.80;1.00;;;;;;20880512;28;20064;-43
2023/07/18 16:08:46;;;;;;;4.70;0.82;;;23.90;1.00;;;;;;20882066;28;20045;-43
2023/07/18 16:18:58;;;;;;;3.38;1.08;;;23.70;1.00;;;;;;20873930;28;20047;-42
2023/07/18 16:28:59;;;;;;;2.92;0.85;;;23.60;1.00;;;;;;20892365;28;20041;-43
2023/07/18 16:39:00;;;;;;;3.28;0.90;;;23.30;1.00;;;;;;20893537;28;20051;-42
2023/07/18 16:49:03;;;;;;;2.92;0.75;;;23.10;1.00;;;;;;20861336;28;20051;-43
2023/07/18 16:59:04;;;;;;;3.95;1.20;;;22.90;1.00;;;;;;20847411;28;20045;-43
2023/07/18 17:09:06;;;;;;;1.83;0.80;;;22.60;1.00;;;;;;20823771;28;20068;-42
2023/07/18 17:19:07;;;;;;;2.88;0.77;;;22.50;1.00;;;;;;20851597;28;20036;-43
2023/07/18 17:29:08;;;;;;;1.52;0.60;;;22.30;1.00;;;;;;20847592;28;20067;-42
2023/07/18 17:39:09;;;;;;;2.20;0.80;;;22.20;1.00;;;;;;20852087;28;20478;-43
2023/07/18 17:49:10;;;;;;;2.20;0.55;;;22.00;1.00;;;;;;20855349;28;20044;-43
2023/07/18 17:59:11;;;;;;;2.28;1.08;;;21.90;1.00;;;;;;20825905;28;20083;-43
2023/07/18 18:09:12;;;;;;;4.00;1.65;;;21.70;1.00;;;;;;20855667;28;20933;-43
2023/07/18 18:19:13;;;;;;;3.28;1.30;;;21.60;1.00;;;;;;20840225;28;20048;-42
2023/07/18 18:29:15;;;;;;;2.25;0.70;;;21.50;1.00;;;;;;20847044;28;20043;-42
2023/07/18 18:39:17;;;;;;;3.13;0.60;;;21.40;1.00;;;;;;20834465;28;20757;-42
2023/07/18 18:49:18;;;;;;;1.83;0.60;;;21.10;1.00;;;;;;20845321;28;20049;-42
2023/07/18 18:59:19;;;;;;;3.92;0.77;;;21.00;1.00;;;;;;20832871;28;20068;-43
2023/07/18 19:09:21;;;;;;;2.53;0.88;;;20.90;1.00;;;;;;20830159;28;20806;-42
2023/07/18 19:19:22;;;;;;;2.88;0.80;;;20.90;1.00;;;;;;20844348;28;20036;-47
2023/07/18 19:29:23;;;;;;;4.65;1.13;;;20.60;1.00;;;;;;20832823;28;20510;-42
2023/07/18 19:39:25;;;;;;;1.27;0.55;;;20.30;1.00;;;;;;20841870;28;20369;-42
2023/07/18 19:49:28;;;;;;;4.82;0.75;;;20.20;1.00;;;;;;20843756;28;20033;-42
2023/07/18 19:59:29;;;;;;;3.85;0.70;;;20.20;1.00;;;;;;20827234;28;20045;-42
2023/07/18 20:09:30;;;;;;;2.13;0.75;;;20.10;1.00;;;;;;20829987;28;20041;-42
2023/07/18 20:19:32;;;;;;;2.30;0.77;;;20.00;1.00;;;;;;20834339;28;20432;-43
2023/07/18 20:29:35;;;;;;;2.80;0.80;;;19.90;1.00;;;;;;20829501;28;20037;-42
2023/07/18 20:39:36;;;;;;;1.45;0.85;;;19.70;1.00;;;;;;20833026;28;20048;-42
2023/07/18 20:49:38;;;;;;;3.05;1.30;;;19.30;1.00;;;;;;20839038;28;20396;-42
2023/07/18 20:59:39;;;;;;;3.92;1.13;;;19.20;1.00;;;;;;20850525;28;20048;-42
2023/07/18 21:09:40;;;;;;;3.35;1.00;;;19.00;1.00;;;;;;20872912;28;20037;-42
2023/07/18 21:19:41;;;;;;;4.10;1.15;;;18.90;1.00;;;;;;20878864;28;20040;-42
2023/07/18 21:29:42;;;;;;;2.33;0.90;;;18.80;1.00;;;;;;20871432;28;20076;-42
2023/07/18 21:39:43;;;;;;;1.75;0.80;;;18.80;1.00;;;;;;20879509;28;20056;-42
2023/07/18 21:49:44;;;;;;;2.10;0.90;;;18.80;1.00;;;;;;20865386;28;20051;-42
2023/07/18 21:59:45;;;;;;;2.83;1.00;;;18.70;1.00;;;;;;20860807;28;20041;-43
2023/07/18 22:09:46;;;;;;;4.03;1.38;;;18.50;1.00;;;;;;20847752;28;20435;-42
2023/07/18 22:19:47;;;;;;;4.78;1.27;;;18.40;1.00;;;;;;20857336;28;20037;-42
2023/07/18 22:29:48;;;;;;;2.10;1.05;;;18.30;1.00;;;;;;20855320;28;20049;-42
2023/07/18 22:39:49;;;;;;;3.63;1.05;;;18.30;1.00;;;;;;20864593;28;20221;-42
2023/07/18 22:49:50;;;;;;;3.25;1.13;;;18.20;1.00;;;;;;20857601;28;20407;-42
2023/07/18 22:59:51;;;;;;;2.53;1.20;;;18.10;1.00;;;;;;20856073;28;20040;-42
2023/07/18 23:09:52;;;;;;;3.33;1.50;;;18.10;1.00;;;;;;20851367;28;20049;-42
2023/07/18 23:19:53;;;;;;;2.72;1.23;;;18.00;1.00;;;;;;20859765;28;20079;-42
2023/07/18 23:29:54;;;;;;;2.97;1.50;;;18.00;1.00;;;;;;20871458;28;20052;-42
2023/07/18 23:39:56;;;;;;;3.25;1.55;;;17.90;1.00;;;;;;20857834;28;20318;-42
2023/07/18 23:49:57;;;;;;;4.50;1.90;;;17.80;1.00;;;;;;20863894;28;20032;-42
2023/07/18 23:59:58;;;;;;;4.00;2.38;;;17.80;1.00;;;;;;20853810;28;20040;-42
